createdAt,value
2023-03-22T00:00:46.115Z,12.30
2023-03-22T00:05:47.567Z,10.88
2023-03-22T00:10:49.025Z,10.80
2023-03-22T00:15:50.502Z,11.15
2023-03-22T00:20:53.582Z,10.68
2023-03-22T00:25:55.105Z,11.00
2023-03-22T00:30:58.502Z,10.40
2023-03-22T00:36:01.761Z,9.18
2023-03-22T00:41:10.967Z,9.25
2023-03-22T00:46:12.967Z,10.15
2023-03-22T00:51:14.718Z,10.23
2023-03-22T00:56:16.489Z,9.68
2023-03-22T01:01:18.229Z,9.85
2023-03-22T01:06:19.699Z,9.18
2023-03-22T01:11:21.164Z,10.45
2023-03-22T01:16:22.645Z,8.38
2023-03-22T01:21:24.352Z,8.60
2023-03-22T01:26:25.848Z,8.68
2023-03-22T01:31:27.547Z,10.07
2023-03-22T01:36:29.043Z,10.18
2023-03-22T01:41:35.042Z,9.68
2023-03-22T01:46:36.737Z,9.77
2023-03-22T01:51:38.522Z,10.40
2023-03-22T01:56:41.004Z,12.27
2023-03-22T02:01:42.514Z,12.90
2023-03-22T02:06:44.472Z,11.88
2023-03-22T02:12:25.957Z,11.13
2023-03-22T02:17:51.318Z,12.65
2023-03-22T02:23:26.184Z,12.68
2023-03-22T02:28:57.816Z,12.50
2023-03-22T02:34:36.573Z,11.70
2023-03-22T02:39:56.123Z,12.85
2023-03-22T02:45:11.179Z,12.65
2023-03-22T02:50:52.428Z,10.07
2023-03-22T02:56:05.500Z,11.93
2023-03-22T03:01:08.757Z,10.63
2023-03-22T03:06:11.535Z,8.93
2023-03-22T03:11:13.020Z,9.13
2023-03-22T03:16:17.277Z,8.65
2023-03-22T03:21:42.471Z,8.32
2023-03-22T03:27:05.728Z,7.80
2023-03-22T03:32:11.837Z,6.97
2023-03-22T03:37:15.892Z,8.23
2023-03-22T03:42:17.385Z,6.72
2023-03-22T03:47:18.848Z,7.68
2023-03-22T03:52:24.403Z,6.53
2023-03-22T03:57:25.872Z,6.65
2023-03-22T04:02:27.429Z,6.65
2023-03-22T04:07:28.925Z,5.80
2023-03-22T04:12:31.045Z,5.55
2023-03-22T04:17:32.817Z,5.10
2023-03-22T04:22:34.520Z,4.57
2023-03-22T04:27:35.998Z,4.40
2023-03-22T04:32:37.583Z,5.10
2023-03-22T04:37:39.085Z,4.53
2023-03-22T04:42:40.545Z,4.97
2023-03-22T04:47:42.118Z,4.43
2023-03-22T04:52:43.629Z,4.00
2023-03-22T04:57:45.365Z,4.53
2023-03-22T05:02:46.901Z,3.92
2023-03-22T05:07:48.430Z,3.42
2023-03-22T05:12:49.947Z,2.85
2023-03-22T05:17:51.434Z,3.10
2023-03-22T05:22:56.715Z,3.53
2023-03-22T05:28:01.379Z,4.32
2023-03-22T05:33:04.189Z,2.40
2023-03-22T05:38:05.887Z,2.35
2023-03-22T05:43:07.417Z,2.35
2023-03-22T05:48:09.004Z,2.60
2023-03-22T05:53:11.580Z,2.67
2023-03-22T05:58:13.123Z,2.50
2023-03-22T06:03:16.822Z,2.60
2023-03-22T06:08:18.446Z,3.25
2023-03-22T06:13:20.306Z,2.83
2023-03-22T06:18:21.797Z,3.67
2023-03-22T06:23:23.260Z,3.97
2023-03-22T06:28:29.636Z,3.35
2023-03-22T06:33:31.113Z,3.67
2023-03-22T06:38:32.583Z,3.53
2023-03-22T06:43:34.065Z,3.10
2023-03-22T06:48:36.105Z,3.28
2023-03-22T06:53:37.702Z,2.90
2023-03-22T06:58:39.184Z,4.40
2023-03-22T07:03:40.650Z,3.53
2023-03-22T07:08:42.115Z,3.55
2023-03-22T07:13:45.069Z,4.97
2023-03-22T07:23:47.972Z,3.90
2023-03-22T07:28:49.433Z,5.03
2023-03-22T07:33:52.091Z,5.25
2023-03-22T07:38:53.553Z,5.95
2023-03-22T07:44:04.775Z,5.78
2023-03-22T07:49:12.888Z,6.65
2023-03-22T07:54:30.568Z,6.68
2023-03-22T07:59:34.249Z,6.85
2023-03-22T08:04:35.707Z,8.68
2023-03-22T08:09:37.447Z,6.95
2023-03-22T08:14:38.915Z,7.60
2023-03-22T08:19:40.375Z,9.00
2023-03-22T08:24:41.821Z,8.73
2023-03-22T08:29:43.322Z,10.55
2023-03-22T08:34:44.769Z,9.27
2023-03-22T08:39:46.239Z,9.00
2023-03-22T08:44:47.803Z,9.45
2023-03-22T08:49:49.252Z,8.73
2023-03-22T08:54:53.270Z,10.02
2023-03-22T08:59:56.658Z,10.60
2023-03-22T09:04:58.119Z,9.02
2023-03-22T09:09:59.591Z,8.95
2023-03-22T09:15:01.083Z,9.52
2023-03-22T09:20:11.905Z,8.50
2023-03-22T09:25:14.167Z,8.38
2023-03-22T09:30:15.957Z,8.10
2023-03-22T09:35:17.483Z,8.02
2023-03-22T09:40:19.377Z,8.05
2023-03-22T09:45:25.096Z,7.72
2023-03-22T09:50:31.285Z,7.13
2023-03-22T09:55:37.708Z,7.32
2023-03-22T10:00:47.798Z,7.10
2023-03-22T10:06:05.532Z,8.02
2023-03-22T10:11:16.675Z,6.35
2023-03-22T10:16:26.363Z,6.90
2023-03-22T10:21:27.878Z,6.97
2023-03-22T10:26:40.468Z,6.55
2023-03-22T10:31:43.250Z,6.10
2023-03-22T10:36:44.746Z,5.97
2023-03-22T10:41:46.398Z,6.38
2023-03-22T10:46:47.951Z,5.70
2023-03-22T10:51:50.093Z,5.63
2023-03-22T10:56:51.739Z,5.65
2023-03-22T11:01:53.382Z,5.55
2023-03-22T11:06:56.439Z,5.22
2023-03-22T11:11:59.494Z,4.88
2023-03-22T11:17:06.860Z,4.90
2023-03-22T11:22:20.250Z,4.90
2023-03-22T11:27:32.865Z,5.93
2023-03-22T11:32:38.091Z,5.25
2023-03-22T11:37:46.364Z,6.00
2023-03-22T11:42:48.966Z,5.00
2023-03-22T11:47:50.525Z,5.90
2023-03-22T11:52:52.448Z,5.22
2023-03-22T11:57:55.837Z,4.80
2023-03-22T12:03:01.959Z,3.80
2023-03-22T12:08:25.286Z,4.13
2023-03-22T12:13:43.101Z,4.13
2023-03-22T12:18:51.248Z,4.72
2023-03-22T12:23:52.702Z,3.78
2023-03-22T12:28:56.731Z,4.43
2023-03-22T12:34:01.425Z,3.78
2023-03-22T12:39:02.874Z,4.38
2023-03-22T12:44:18.044Z,3.85
2023-03-22T12:49:28.128Z,3.90
2023-03-22T12:54:29.588Z,3.97
2023-03-22T12:59:31.225Z,4.00
2023-03-22T13:04:50.138Z,3.60
2023-03-22T13:09:51.590Z,3.33
2023-03-22T13:14:57.983Z,3.47
2023-03-22T13:20:26.957Z,3.92
2023-03-22T13:25:30.397Z,3.38
2023-03-22T13:30:52.390Z,3.47
2023-03-22T13:35:56.758Z,3.30
2023-03-22T13:41:07.137Z,3.80
2023-03-22T13:46:17.833Z,3.53
2023-03-22T13:51:21.809Z,3.95
2023-03-22T13:56:46.745Z,3.75
2023-03-22T14:02:04.524Z,3.33
2023-03-22T14:07:30.910Z,4.07
2023-03-22T14:12:44.527Z,3.25
2023-03-22T14:18:14.052Z,3.90
